Time;durP1;ratioP1;P1;durP2;ratioP2;P2;SDS_P1;SDS_P2;PMS_P1;PMS_P2;Temp;Humidity;BMP_temperature;BMP_pressure;BME280_temperature;BME280_humidity;BME280_pressure;Samples;Min_cycle;Max_cycle;Signal;HPM_P1;HPM_P2
2022/08/27 00:01:53;;;;;;;;;;;24.10;81.90;;;;;;5117354;28;19911;-56
2022/08/27 00:04:19;;;;;;;;;;;24.10;81.90;;;;;;5116926;28;20273;-56
2022/08/27 00:06:44;;;;;;;;;;;24.10;82.00;;;;;;5117261;28;19911;-56
2022/08/27 00:09:10;;;;;;;;;;;24.10;81.90;;;;;;5117621;28;19907;-53
2022/08/27 00:11:35;;;;;;;;;;;24.10;81.90;;;;;;5117246;28;19907;-55
2022/08/27 00:14:02;;;;;;;;;;;24.10;82.00;;;;;;5117260;28;20021;-56
2022/08/27 00:16:28;;;;;;;;;;;24.10;82.00;;;;;;5117073;28;19919;-51
2022/08/27 00:18:54;;;;;;;;;;;24.10;82.00;;;;;;5117227;28;20030;-54
2022/08/27 00:21:19;;;;;;;;;;;24.10;82.00;;;;;;5116812;28;19908;-55
2022/08/27 00:23:45;;;;;;;;;;;24.10;82.00;;;;;;5116995;28;20006;-52
2022/08/27 00:26:11;;;;;;;;;;;24.10;81.90;;;;;;5117342;28;19947;-55
2022/08/27 00:28:36;;;;;;;;;;;24.10;82.00;;;;;;5117336;28;19908;-56
2022/08/27 00:31:02;;;;;;;;;;;24.10;82.00;;;;;;5116637;28;20369;-57
2022/08/27 00:33:29;;;;;;;;;;;24.10;82.00;;;;;;5116909;28;20297;-55
2022/08/27 00:35:55;;;;;;;;;;;24.10;82.00;;;;;;5116572;28;19907;-56
2022/08/27 00:38:22;;;;;;;;;;;24.10;82.00;;;;;;5116247;28;19908;-55
2022/08/27 00:40:48;;;;;;;;;;;24.10;82.10;;;;;;5116653;28;19952;-56
2022/08/27 00:43:19;;;;;;;;;;;24.10;82.10;;;;;;5116246;28;20348;-55
2022/08/27 00:45:45;;;;;;;;;;;24.10;82.10;;;;;;5116308;28;20313;-57
2022/08/27 00:48:13;;;;;;;;;;;24.10;82.10;;;;;;5116613;28;19908;-53
2022/08/27 00:50:47;;;;;;;;;;;24.10;82.10;;;;;;5116568;28;19947;-54
2022/08/27 00:53:14;;;;;;;;;;;24.10;82.10;;;;;;5116389;28;20293;-57
2022/08/27 00:55:49;;;;;;;;;;;24.10;82.10;;;;;;5116394;28;19967;-55
2022/08/27 00:58:26;;;;;;;;;;;24.10;82.10;;;;;;5116021;28;19914;-54
2022/08/27 01:00:52;;;;;;;;;;;24.10;82.20;;;;;;5116254;28;20378;-57
2022/08/27 01:03:18;;;;;;;;;;;24.10;82.20;;;;;;5116493;28;19957;-54
2022/08/27 01:05:44;;;;;;;;;;;24.10;82.20;;;;;;5116264;28;19962;-53
2022/08/27 01:08:14;;;;;;;;;;;24.10;82.20;;;;;;5115036;28;19961;-57
2022/08/27 01:10:40;;;;;;;;;;;24.10;82.20;;;;;;5116173;28;19908;-54
2022/08/27 01:13:13;;;;;;;;;;;24.10;82.10;;;;;;5116216;28;19977;-57
2022/08/27 01:15:40;;;;;;;;;;;24.10;82.10;;;;;;5115981;28;19998;-54
2022/08/27 01:18:06;;;;;;;;;;;24.10;82.10;;;;;;5115760;28;19911;-55
2022/08/27 01:20:39;;;;;;;;;;;24.10;82.10;;;;;;5115540;28;20002;-55
2022/08/27 01:23:08;;;;;;;;;;;24.10;82.10;;;;;;5115560;28;20007;-56
2022/08/27 01:25:34;;;;;;;;;;;24.10;82.20;;;;;;5115441;28;19912;-54
2022/08/27 01:27:59;;;;;;;;;;;24.10;82.20;;;;;;5115751;28;20377;-53
2022/08/27 01:30:25;;;;;;;;;;;24.10;82.20;;;;;;5115775;28;19915;-56
2022/08/27 01:32:52;;;;;;;;;;;24.10;82.20;;;;;;5115629;28;19907;-55
2022/08/27 01:35:19;;;;;;;;;;;24.10;82.20;;;;;;5115627;28;19915;-56
2022/08/27 01:37:46;;;;;;;;;;;24.10;82.20;;;;;;5115533;28;19915;-53
2022/08/27 01:40:12;;;;;;;;;;;24.10;82.20;;;;;;5115756;28;19911;-54
2022/08/27 01:42:39;;;;;;;;;;;24.10;82.20;;;;;;5097243;28;20274;-57
2022/08/27 01:45:10;;;;;;;;;;;24.10;82.20;;;;;;5115086;28;19911;-57
2022/08/27 01:47:36;;;;;;;;;;;24.10;82.20;;;;;;5097194;28;19912;-56
2022/08/27 01:50:04;;;;;;;;;;;24.10;82.20;;;;;;5115065;28;19911;-56
2022/08/27 01:52:30;;;;;;;;;;;24.10;82.20;;;;;;5115365;28;19908;-56
2022/08/27 01:54:55;;;;;;;;;;;24.10;82.20;;;;;;5115342;28;19908;-54
2022/08/27 01:57:21;;;;;;;;;;;24.10;82.20;;;;;;5115213;28;20270;-56
2022/08/27 01:59:47;;;;;;;;;;;24.10;82.20;;;;;;5115220;28;19908;-55
2022/08/27 02:02:13;;;;;;;;;;;24.10;82.20;;;;;;5115140;28;19908;-57
2022/08/27 02:04:40;;;;;;;;;;;24.10;82.20;;;;;;5114994;28;19912;-55
2022/08/27 02:07:05;;;;;;;;;;;24.10;82.30;;;;;;5115174;28;19912;-55
2022/08/27 02:09:32;;;;;;;;;;;24.10;82.20;;;;;;5115017;28;19964;-56
2022/08/27 02:11:59;;;;;;;;;;;24.10;82.20;;;;;;5115375;28;19914;-53
2022/08/27 02:14:24;;;;;;;;;;;24.10;82.20;;;;;;5114930;28;19961;-55
2022/08/27 02:16:50;;;;;;;;;;;24.10;82.20;;;;;;5114935;28;19919;-56
2022/08/27 02:19:15;;;;;;;;;;;24.10;82.20;;;;;;5115126;28;19918;-56
2022/08/27 02:21:41;;;;;;;;;;;24.10;82.20;;;;;;5114794;28;19911;-55
2022/08/27 02:24:06;;;;;;;;;;;24.10;82.20;;;;;;5114808;28;20347;-54
2022/08/27 02:26:32;;;;;;;;;;;24.10;82.20;;;;;;5114454;28;19912;-56
2022/08/27 02:28:58;;;;;;;;;;;24.10;82.30;;;;;;5114500;28;19956;-55
2022/08/27 02:31:23;;;;;;;;;;;24.10;82.30;;;;;;5114450;28;19908;-56
2022/08/27 02:33:49;;;;;;;;;;;24.10;82.30;;;;;;5114624;28;19908;-52
2022/08/27 02:36:15;;;;;;;;;;;24.10;82.30;;;;;;5114370;28;19918;-56
2022/08/27 02:38:40;;;;;;;;;;;24.10;82.30;;;;;;5114293;28;19914;-55
2022/08/27 02:41:06;;;;;;;;;;;24.10;82.30;;;;;;5114685;28;19962;-57
2022/08/27 02:43:31;;;;;;;;;;;24.10;82.30;;;;;;5114284;28;20391;-51
2022/08/27 02:45:57;;;;;;;;;;;24.10;82.30;;;;;;5114540;28;19947;-52
2022/08/27 02:48:23;;;;;;;;;;;24.10;82.40;;;;;;5114175;28;20343;-56
2022/08/27 02:50:49;;;;;;;;;;;24.10;82.30;;;;;;5114158;28;19969;-54
2022/08/27 02:53:15;;;;;;;;;;;24.10;82.40;;;;;;5096512;28;20266;-57
2022/08/27 02:55:41;;;;;;;;;;;24.10;82.40;;;;;;5114368;28;19965;-56
2022/08/27 02:58:06;;;;;;;;;;;24.10;82.40;;;;;;5114107;28;19908;-55
2022/08/27 03:00:32;;;;;;;;;;;24.10;82.40;;;;;;5114496;28;19995;-57
2022/08/27 03:02:58;;;;;;;;;;;24.10;82.40;;;;;;5114185;28;19953;-56
2022/08/27 03:05:24;;;;;;;;;;;24.10;82.40;;;;;;5114364;28;19915;-56
2022/08/27 03:07:49;;;;;;;;;;;24.10;82.40;;;;;;5114853;28;19919;-56
2022/08/27 03:10:16;;;;;;;;;;;24.10;82.40;;;;;;5114040;28;19907;-53
2022/08/27 03:12:43;;;;;;;;;;;24.10;82.40;;;;;;5114263;28;20002;-54
2022/08/27 03:15:11;;;;;;;;;;;24.10;82.40;;;;;;5113913;28;19908;-52
2022/08/27 03:20:21;;;;;;;;;;;24.10;82.50;;;;;;5114036;28;20319;-55
2022/08/27 03:22:47;;;;;;;;;;;24.10;82.50;;;;;;5095671;28;19956;-55
2022/08/27 03:25:13;;;;;;;;;;;24.10;82.50;;;;;;5114059;28;20002;-55
2022/08/27 03:27:38;;;;;;;;;;;24.10;82.50;;;;;;5113834;28;19920;-57
2022/08/27 03:30:05;;;;;;;;;;;24.10;82.50;;;;;;5096582;28;19908;-57
2022/08/27 03:32:31;;;;;;;;;;;24.10;82.50;;;;;;5099752;28;19953;-56
2022/08/27 03:34:57;;;;;;;;;;;24.10;82.50;;;;;;5117803;28;19908;-57
2022/08/27 03:37:22;;;;;;;;;;;24.10;82.50;;;;;;5118255;28;20357;-54
2022/08/27 03:39:48;;;;;;;;;;;24.10;82.50;;;;;;5117939;28;19998;-56
2022/08/27 03:42:13;;;;;;;;;;;24.10;82.50;;;;;;5099596;28;19914;-57
2022/08/27 03:44:39;;;;;;;;;;;24.10;82.50;;;;;;5117710;28;20010;-56
2022/08/27 03:47:05;;;;;;;;;;;24.10;82.50;;;;;;5117725;28;19951;-56
2022/08/27 03:49:30;;;;;;;;;;;24.10;82.50;;;;;;5117503;28;19939;-58
2022/08/27 03:51:56;;;;;;;;;;;24.10;82.50;;;;;;5117688;28;19915;-56
2022/08/27 03:54:21;;;;;;;;;;;24.10;82.50;;;;;;5117555;28;19911;-57
2022/08/27 03:56:47;;;;;;;;;;;24.10;83.00;;;;;;5117461;28;19907;-57
2022/08/27 03:59:14;;;;;;;;;;;24.10;82.50;;;;;;5117317;28;19915;-57
2022/08/27 04:01:40;;;;;;;;;;;24.10;82.50;;;;;;5117106;28;19908;-57
2022/08/27 04:04:05;;;;;;;;;;;24.10;82.50;;;;;;5117164;28;19935;-56
2022/08/27 04:06:32;;;;;;;;;;;24.10;82.50;;;;;;5117282;28;19915;-56
2022/08/27 04:08:57;;;;;;;;;;;24.10;82.50;;;;;;5117053;28;19907;-56
2022/08/27 04:11:23;;;;;;;;;;;24.10;82.50;;;;;;5117530;28;19908;-54
2022/08/27 04:13:48;;;;;;;;;;;24.10;82.50;;;;;;5117625;28;19998;-56
2022/08/27 04:16:14;;;;;;;;;;;24.00;82.50;;;;;;5116838;28;20362;-55
2022/08/27 04:18:39;;;;;;;;;;;24.10;82.50;;;;;;5117177;28;19908;-51
2022/08/27 04:21:06;;;;;;;;;;;24.00;82.40;;;;;;5117468;28;20380;-53
2022/08/27 04:23:32;;;;;;;;;;;24.00;82.50;;;;;;5116839;28;19918;-55
2022/08/27 04:25:57;;;;;;;;;;;24.00;82.50;;;;;;5117246;28;19934;-56
2022/08/27 04:28:23;;;;;;;;;;;24.00;82.50;;;;;;5116660;28;19908;-56
2022/08/27 04:30:48;;;;;;;;;;;24.10;82.50;;;;;;5116614;28;19908;-56
2022/08/27 04:33:14;;;;;;;;;;;24.00;82.40;;;;;;5116544;28;19914;-52
2022/08/27 04:35:39;;;;;;;;;;;24.10;82.50;;;;;;5116487;28;20111;-54
2022/08/27 04:38:05;;;;;;;;;;;24.00;82.40;;;;;;5098505;28;19998;-54
2022/08/27 04:43:15;;;;;;;;;;;24.00;82.50;;;;;;5115638;28;19914;-55
2022/08/27 04:45:44;;;;;;;;;;;24.00;82.50;;;;;;5116521;28;19911;-56
2022/08/27 04:48:10;;;;;;;;;;;24.00;82.50;;;;;;5116355;28;20285;-54
2022/08/27 04:50:44;;;;;;;;;;;24.00;82.50;;;;;;5116408;28;19930;-55
2022/08/27 04:53:10;;;;;;;;;;;24.00;82.40;;;;;;5116416;28;19915;-54
2022/08/27 04:55:42;;;;;;;;;;;24.10;82.50;;;;;;5116744;28;19908;-57
2022/08/27 04:58:08;;;;;;;;;;;24.00;82.50;;;;;;5116432;28;19943;-54
2022/08/27 05:00:39;;;;;;;;;;;24.10;82.50;;;;;;5098034;28;19953;-53
2022/08/27 05:03:04;;;;;;;;;;;24.00;82.50;;;;;;5116328;28;20440;-54
2022/08/27 05:05:29;;;;;;;;;;;24.00;82.50;;;;;;5116478;28;20053;-56
2022/08/27 05:07:55;;;;;;;;;;;24.00;82.70;;;;;;5116019;28;20343;-52
2022/08/27 05:10:20;;;;;;;;;;;24.00;82.50;;;;;;5097703;28;19995;-56
2022/08/27 05:12:48;;;;;;;;;;;24.00;82.50;;;;;;5115676;28;19908;-54
2022/08/27 05:15:13;;;;;;;;;;;24.00;82.50;;;;;;5115521;28;20274;-53
2022/08/27 05:17:38;;;;;;;;;;;24.00;82.50;;;;;;5115656;28;19908;-56
2022/08/27 05:20:04;;;;;;;;;;;24.00;82.60;;;;;;5116259;28;20358;-53
2022/08/27 05:22:30;;;;;;;;;;;24.00;82.50;;;;;;5115789;28;19942;-57
2022/08/27 05:24:55;;;;;;;;;;;24.00;82.50;;;;;;5115594;28;19916;-52
2022/08/27 05:27:20;;;;;;;;;;;24.00;82.50;;;;;;5115782;28;20010;-54
2022/08/27 05:29:46;;;;;;;;;;;24.00;82.50;;;;;;5115332;28;20259;-55
2022/08/27 05:32:12;;;;;;;;;;;24.00;82.50;;;;;;5115258;28;19970;-54
2022/08/27 05:34:37;;;;;;;;;;;24.00;82.50;;;;;;5115537;28;19915;-54
2022/08/27 05:37:03;;;;;;;;;;;24.00;82.50;;;;;;5115158;28;20430;-54
2022/08/27 05:39:29;;;;;;;;;;;24.00;82.50;;;;;;5097209;28;19908;-55
2022/08/27 05:41:57;;;;;;;;;;;24.00;82.50;;;;;;5115219;28;20063;-54
2022/08/27 05:44:22;;;;;;;;;;;24.00;82.60;;;;;;5115092;28;19911;-55
2022/08/27 05:46:48;;;;;;;;;;;24.00;82.60;;;;;;5115355;28;19912;-56
2022/08/27 05:49:13;;;;;;;;;;;24.10;82.60;;;;;;5115320;28;19939;-56
2022/08/27 05:51:40;;;;;;;;;;;24.00;82.60;;;;;;5114902;28;19908;-56
2022/08/27 05:54:07;;;;;;;;;;;24.00;82.60;;;;;;5114644;28;19962;-54
2022/08/27 05:56:34;;;;;;;;;;;24.00;82.60;;;;;;5115041;28;19908;-52
2022/08/27 06:01:46;;;;;;;;;;;24.00;82.60;;;;;;5115129;28;20274;-56
2022/08/27 06:04:12;;;;;;;;;;;24.00;82.50;;;;;;5114938;28;19916;-53
2022/08/27 06:06:39;;;;;;;;;;;24.00;82.50;;;;;;5115090;28;19988;-52
2022/08/27 06:09:05;;;;;;;;;;;24.10;82.50;;;;;;5114651;28;20342;-56
2022/08/27 06:11:31;;;;;;;;;;;24.10;82.50;;;;;;5096691;28;20351;-55
2022/08/27 06:13:57;;;;;;;;;;;24.10;82.50;;;;;;5114866;28;19915;-53
2022/08/27 06:16:22;;;;;;;;;;;24.10;82.50;;;;;;5114452;28;19970;-56
2022/08/27 06:18:48;;;;;;;;;;;24.10;82.50;;;;;;5095922;28;19977;-53
2022/08/27 06:21:15;;;;;;;;;;;24.10;83.00;;;;;;5096558;28;19908;-52
2022/08/27 06:23:40;;;;;;;;;;;24.10;82.50;;;;;;5114580;28;19908;-55
2022/08/27 06:26:07;;;;;;;;;;;24.10;82.50;;;;;;5114358;28;20422;-52
2022/08/27 06:28:33;;;;;;;;;;;24.10;82.50;;;;;;5114618;28;19908;-53
2022/08/27 06:31:05;;;;;;;;;;;24.10;82.50;;;;;;5114122;28;19996;-56
2022/08/27 06:33:31;;;;;;;;;;;24.10;82.50;;;;;;5114518;28;20415;-54
2022/08/27 06:35:57;;;;;;;;;;;24.10;82.40;;;;;;5114450;28;19912;-55
2022/08/27 06:38:23;;;;;;;;;;;24.10;82.40;;;;;;5114301;28;19914;-55
2022/08/27 06:40:48;;;;;;;;;;;24.10;82.40;;;;;;5114008;28;19908;-51
2022/08/27 06:43:14;;;;;;;;;;;24.10;82.30;;;;;;5113910;28;19987;-52
2022/08/27 06:45:40;;;;;;;;;;;24.10;82.40;;;;;;5114439;28;19912;-55
2022/08/27 06:48:05;;;;;;;;;;;24.10;82.50;;;;;;5096056;28;20020;-53
2022/08/27 06:50:35;;;;;;;;;;;24.10;82.40;;;;;;5113793;28;19966;-56
2022/08/27 06:53:01;;;;;;;;;;;24.10;82.50;;;;;;5113831;28;20421;-53
2022/08/27 06:55:26;;;;;;;;;;;24.20;82.50;;;;;;5113819;28;20006;-56
2022/08/27 06:57:52;;;;;;;;;;;24.10;82.50;;;;;;5113792;28;19912;-55
2022/08/27 07:00:17;;;;;;;;;;;24.10;82.40;;;;;;5114182;28;19975;-51
2022/08/27 07:02:42;;;;;;;;;;;24.20;82.40;;;;;;5114136;28;19918;-54
2022/08/27 07:05:08;;;;;;;;;;;24.10;82.50;;;;;;5114489;28;19911;-53
2022/08/27 07:07:33;;;;;;;;;;;24.10;82.40;;;;;;5099851;28;19912;-56
2022/08/27 07:09:59;;;;;;;;;;;24.10;82.50;;;;;;5118308;28;19908;-54
2022/08/27 07:12:25;;;;;;;;;;;24.10;83.10;;;;;;5118203;28;19912;-54
2022/08/27 07:14:50;;;;;;;;;;;24.10;82.40;;;;;;5099963;28;19961;-54
2022/08/27 07:17:16;;;;;;;;;;;24.10;82.50;;;;;;5117647;28;19924;-56
2022/08/27 07:19:42;;;;;;;;;;;24.10;82.50;;;;;;5117885;28;19918;-53
2022/08/27 07:22:08;;;;;;;;;;;24.10;82.40;;;;;;5118044;28;20300;-55
2022/08/27 07:24:34;;;;;;;;;;;24.10;82.50;;;;;;5117777;28;19968;-56
2022/08/27 07:26:59;;;;;;;;;;;24.10;82.50;;;;;;5117986;28;19912;-55
2022/08/27 07:29:25;;;;;;;;;;;24.10;82.60;;;;;;5099557;28;20266;-55
2022/08/27 07:31:50;;;;;;;;;;;24.10;82.60;;;;;;5117821;28;19915;-55
2022/08/27 07:34:16;;;;;;;;;;;24.10;82.60;;;;;;5117710;28;19958;-54
2022/08/27 07:36:41;;;;;;;;;;;24.10;82.60;;;;;;5117667;28;19912;-56
2022/08/27 07:39:07;;;;;;;;;;;24.10;82.60;;;;;;5117425;28;20313;-55
2022/08/27 07:44:23;;;;;;;;;;;24.10;82.60;;;;;;5117775;28;19914;-56
2022/08/27 07:44:24;;;;;;;;;;;24.10;82.60;;;;;;5117144;28;19919;-56
2022/08/27 07:46:50;;;;;;;;;;;24.10;82.60;;;;;;5099233;28;19916;-54
2022/08/27 07:49:16;;;;;;;;;;;24.10;82.60;;;;;;5116941;28;19923;-55
2022/08/27 07:51:42;;;;;;;;;;;24.10;82.60;;;;;;5117114;28;20350;-55
2022/08/27 07:54:07;;;;;;;;;;;24.10;82.70;;;;;;5117382;28;20012;-52
2022/08/27 07:56:33;;;;;;;;;;;24.10;82.60;;;;;;5116874;28;19907;-54
2022/08/27 07:58:58;;;;;;;;;;;24.10;82.60;;;;;;5117010;28;19908;-54
2022/08/27 08:01:24;;;;;;;;;;;24.10;82.60;;;;;;5117012;28;20377;-55
2022/08/27 08:03:49;;;;;;;;;;;24.10;82.60;;;;;;5116836;28;19915;-54
2022/08/27 08:06:17;;;;;;;;;;;24.10;82.60;;;;;;5117015;28;20274;-54
2022/08/27 08:08:44;;;;;;;;;;;24.10;82.60;;;;;;5116610;28;19931;-51
2022/08/27 08:11:11;;;;;;;;;;;24.10;82.60;;;;;;5116558;28;19914;-56
2022/08/27 08:13:37;;;;;;;;;;;24.10;82.60;;;;;;5098374;28;19915;-54
2022/08/27 08:16:03;;;;;;;;;;;24.20;82.70;;;;;;5116229;28;19920;-56
2022/08/27 08:18:28;;;;;;;;;;;24.10;82.60;;;;;;5098482;28;20240;-53
2022/08/27 08:21:01;;;;;;;;;;;24.10;82.60;;;;;;5116695;28;19914;-51
2022/08/27 08:23:27;;;;;;;;;;;24.10;82.60;;;;;;5116599;28;20318;-54
2022/08/27 08:25:53;;;;;;;;;;;24.10;82.60;;;;;;5116354;28;19916;-55
2022/08/27 08:28:18;;;;;;;;;;;24.10;82.60;;;;;;5098497;28;19908;-53
2022/08/27 08:30:45;;;;;;;;;;;24.10;82.60;;;;;;5116349;28;19908;-56
2022/08/27 08:33:12;;;;;;;;;;;24.10;82.60;;;;;;5116612;28;19953;-49
2022/08/27 08:35:38;;;;;;;;;;;24.10;82.60;;;;;;5116237;28;19915;-55
2022/08/27 08:38:03;;;;;;;;;;;24.10;82.70;;;;;;5116082;28;20419;-55
2022/08/27 08:40:35;;;;;;;;;;;24.10;82.70;;;;;;5116275;28;19912;-51
2022/08/27 08:43:02;;;;;;;;;;;24.10;82.60;;;;;;5098174;28;19935;-56
2022/08/27 08:45:30;;;;;;;;;;;24.10;82.70;;;;;;5116184;28;20339;-55
2022/08/27 08:48:02;;;;;;;;;;;24.10;82.70;;;;;;5116466;28;19912;-54
2022/08/27 08:50:33;;;;;;;;;;;24.10;82.70;;;;;;5116200;28;19914;-56
2022/08/27 08:53:25;;;;;;;;;;;24.10;82.70;;;;;;5116117;28;19976;-56
2022/08/27 08:55:52;;;;;;;;;;;24.10;82.70;;;;;;5076831;28;20247;-53
2022/08/27 08:58:17;;;;;;;;;;;24.10;82.70;;;;;;5097732;28;19915;-53
2022/08/27 09:00:44;;;;;;;;;;;24.10;82.70;;;;;;5115568;28;19908;-54
2022/08/27 09:03:11;;;;;;;;;;;24.10;82.70;;;;;;5115747;28;19908;-54
2022/08/27 09:05:38;;;;;;;;;;;24.10;82.70;;;;;;5115701;28;19911;-53
2022/08/27 09:08:12;;;;;;;;;;;24.10;82.70;;;;;;5115790;28;19912;-53
2022/08/27 09:10:50;;;;;;;;;;;24.10;82.70;;;;;;5115987;28;20239;-54
2022/08/27 09:13:21;;;;;;;;;;;24.10;82.70;;;;;;5115835;28;19961;-56
2022/08/27 09:15:47;;;;;;;;;;;24.10;82.70;;;;;;5115706;28;19927;-55
2022/08/27 09:18:13;;;;;;;;;;;24.10;82.80;;;;;;5115639;28;20282;-54
2022/08/27 09:20:40;;;;;;;;;;;24.10;82.80;;;;;;5115726;28;19908;-56
2022/08/27 09:23:13;;;;;;;;;;;24.10;82.80;;;;;;5115852;28;19908;-54
2022/08/27 09:25:40;;;;;;;;;;;24.10;82.70;;;;;;5115548;28;19935;-54
2022/08/27 09:29:14;;;;;;;;;;;24.10;82.80;;;;;;5096088;28;20358;-57
2022/08/27 09:30:57;;;;;;;;;;;24.10;82.80;;;;;;5115422;28;19931;-56
2022/08/27 09:33:23;;;;;;;;;;;24.10;82.80;;;;;;5115587;28;19907;-55
2022/08/27 09:35:49;;;;;;;;;;;24.10;82.80;;;;;;5115539;28;19908;-57
2022/08/27 09:38:23;;;;;;;;;;;24.10;82.80;;;;;;5115325;28;19912;-54
2022/08/27 09:40:49;;;;;;;;;;;24.10;82.80;;;;;;5097257;28;19915;-56
2022/08/27 09:43:15;;;;;;;;;;;24.10;82.80;;;;;;5115749;28;19947;-56
2022/08/27 09:45:51;;;;;;;;;;;24.10;82.80;;;;;;5114962;28;19955;-54
2022/08/27 09:48:18;;;;;;;;;;;24.10;82.80;;;;;;5097024;28;20211;-53
2022/08/27 09:50:49;;;;;;;;;;;24.10;82.80;;;;;;5115144;28;20001;-56
2022/08/27 09:53:25;;;;;;;;;;;24.10;82.90;;;;;;5115278;28;19911;-56
2022/08/27 09:55:58;;;;;;;;;;;24.10;82.80;;;;;;5115028;28;19908;-56
2022/08/27 09:58:26;;;;;;;;;;;24.10;82.80;;;;;;5096749;28;19908;-57
2022/08/27 10:00:59;;;;;;;;;;;24.10;82.80;;;;;;5115216;28;19994;-56
2022/08/27 10:03:24;;;;;;;;;;;24.10;82.80;;;;;;5114542;28;19908;-53
2022/08/27 10:05:50;;;;;;;;;;;24.10;82.80;;;;;;5096232;28;20320;-55
2022/08/27 10:08:42;;;;;;;;;;;24.10;82.80;;;;;;5114712;28;19915;-56
2022/08/27 10:11:20;;;;;;;;;;;24.10;82.80;;;;;;5109156;28;19908;-56
2022/08/27 10:13:57;;;;;;;;;;;24.10;82.80;;;;;;5096711;28;19978;-52
2022/08/27 10:16:32;;;;;;;;;;;24.10;82.80;;;;;;5114280;28;20346;-56
2022/08/27 10:19:04;;;;;;;;;;;24.10;82.80;;;;;;5114333;28;19953;-55
2022/08/27 10:21:43;;;;;;;;;;;24.10;82.80;;;;;;5114398;28;20296;-53
2022/08/27 10:24:14;;;;;;;;;;;24.10;82.80;;;;;;5114810;28;19918;-54
2022/08/27 10:27:03;;;;;;;;;;;24.10;82.80;;;;;;5114529;28;19998;-56
2022/08/27 10:29:32;;;;;;;;;;;24.10;82.80;;;;;;5079135;28;20369;-56
2022/08/27 10:32:12;;;;;;;;;;;24.10;82.80;;;;;;5114276;28;19908;-55
2022/08/27 10:34:49;;;;;;;;;;;24.10;82.80;;;;;;5114135;28;19915;-55
2022/08/27 10:37:18;;;;;;;;;;;24.10;82.80;;;;;;5114313;28;19963;-53
2022/08/27 10:39:48;;;;;;;;;;;24.10;82.80;;;;;;5114108;28;19908;-54
2022/08/27 10:42:20;;;;;;;;;;;24.10;82.70;;;;;;5114135;28;19960;-55
2022/08/27 10:44:54;;;;;;;;;;;24.10;82.70;;;;;;5113964;28;19947;-56
2022/08/27 10:47:25;;;;;;;;;;;24.20;82.80;;;;;;5114341;28;20339;-56
2022/08/27 10:50:10;;;;;;;;;;;24.10;82.70;;;;;;5114109;28;19908;-51
2022/08/27 10:52:36;;;;;;;;;;;24.20;82.80;;;;;;5114826;28;19908;-52
2022/08/27 10:55:11;;;;;;;;;;;24.10;82.80;;;;;;5114240;28;19972;-55
2022/08/27 10:57:59;;;;;;;;;;;24.10;82.80;;;;;;5113836;28;20328;-56
2022/08/27 11:00:27;;;;;;;;;;;24.10;82.90;;;;;;5114198;28;19961;-53
2022/08/27 11:03:05;;;;;;;;;;;24.10;82.90;;;;;;5113917;28;20353;-56
2022/08/27 11:05:34;;;;;;;;;;;24.10;82.80;;;;;;5113930;28;20166;-53
2022/08/27 11:08:03;;;;;;;;;;;24.10;82.90;;;;;;5113759;28;19911;-53
2022/08/27 11:10:35;;;;;;;;;;;24.10;82.90;;;;;;5113778;28;19907;-56
2022/08/27 11:13:27;;;;;;;;;;;24.20;82.90;;;;;;5113838;28;19911;-53
2022/08/27 11:15:55;;;;;;;;;;;24.20;82.90;;;;;;5074801;28;19970;-56
2022/08/27 11:18:35;;;;;;;;;;;24.20;83.00;;;;;;5114287;28;19914;-53
2022/08/27 11:21:04;;;;;;;;;;;24.20;82.90;;;;;;5113806;28;19951;-56
2022/08/27 11:23:38;;;;;;;;;;;24.20;82.90;;;;;;5113613;28;20421;-54
2022/08/27 11:26:04;;;;;;;;;;;24.10;82.90;;;;;;5113520;28;19915;-55
2022/08/27 11:28:59;;;;;;;;;;;24.20;82.90;;;;;;5113469;28;19915;-56
2022/08/27 11:31:33;;;;;;;;;;;24.20;82.90;;;;;;5091660;28;20049;-55
2022/08/27 11:34:06;;;;;;;;;;;24.20;82.90;;;;;;5113705;28;19908;-56
2022/08/27 11:36:45;;;;;;;;;;;24.20;82.90;;;;;;5113732;28;19956;-57
2022/08/27 11:39:10;;;;;;;;;;;24.20;82.90;;;;;;5095675;28;19915;-55
2022/08/27 11:41:35;;;;;;;;;;;24.20;82.90;;;;;;5113413;28;19908;-53
2022/08/27 11:44:01;;;;;;;;;;;24.20;83.00;;;;;;5113351;28;19923;-55
2022/08/27 11:46:37;;;;;;;;;;;24.20;83.00;;;;;;5113541;28;19951;-56
2022/08/27 11:49:03;;;;;;;;;;;24.20;83.00;;;;;;5095070;28;20350;-54
2022/08/27 11:51:28;;;;;;;;;;;24.20;83.00;;;;;;5114809;28;19908;-55
2022/08/27 11:54:03;;;;;;;;;;;24.20;83.00;;;;;;5116801;28;19914;-54
2022/08/27 11:56:28;;;;;;;;;;;24.20;83.00;;;;;;5117311;28;19914;-56
2022/08/27 11:58:54;;;;;;;;;;;24.20;82.90;;;;;;5116790;28;19995;-55
2022/08/27 12:01:24;;;;;;;;;;;24.20;82.90;;;;;;5116915;28;19957;-53
2022/08/27 12:03:59;;;;;;;;;;;24.20;82.90;;;;;;5117088;28;19911;-54
2022/08/27 12:06:25;;;;;;;;;;;24.20;82.90;;;;;;5098854;28;19912;-56
2022/08/27 12:08:52;;;;;;;;;;;24.20;82.90;;;;;;5116871;28;19937;-56
2022/08/27 12:11:26;;;;;;;;;;;24.20;82.90;;;;;;5116785;28;19914;-55
2022/08/27 12:14:11;;;;;;;;;;;24.20;82.90;;;;;;5116938;28;19912;-54
2022/08/27 12:16:45;;;;;;;;;;;24.20;82.90;;;;;;5116508;28;19927;-55
2022/08/27 12:19:11;;;;;;;;;;;24.20;82.90;;;;;;5098357;28;19916;-56
2022/08/27 12:21:45;;;;;;;;;;;24.20;83.00;;;;;;5116605;28;19932;-56
2022/08/27 12:24:10;;;;;;;;;;;24.20;83.00;;;;;;5116458;28;20019;-55
2022/08/27 12:26:40;;;;;;;;;;;24.20;82.90;;;;;;5116979;28;19999;-55
2022/08/27 12:29:22;;;;;;;;;;;24.20;82.90;;;;;;5116184;28;20006;-56
2022/08/27 12:31:49;;;;;;;;;;;24.20;82.90;;;;;;5116373;28;19915;-57
2022/08/27 12:34:19;;;;;;;;;;;24.20;83.00;;;;;;5116612;28;20023;-55
2022/08/27 12:36:48;;;;;;;;;;;24.20;82.90;;;;;;5116026;28;19908;-55
2022/08/27 12:39:15;;;;;;;;;;;24.20;83.00;;;;;;5116283;28;19911;-57
2022/08/27 12:41:44;;;;;;;;;;;24.20;83.00;;;;;;5115872;28;20378;-54
2022/08/27 12:44:15;;;;;;;;;;;24.20;83.00;;;;;;5116303;28;20016;-57
2022/08/27 12:46:48;;;;;;;;;;;24.20;83.00;;;;;;5116242;28;19934;-54
2022/08/27 12:49:18;;;;;;;;;;;24.20;83.00;;;;;;5115860;28;19943;-54
2022/08/27 12:51:44;;;;;;;;;;;24.20;83.00;;;;;;5116362;28;19915;-55
2022/08/27 12:54:12;;;;;;;;;;;24.20;83.00;;;;;;5116429;28;20215;-57
2022/08/27 12:56:37;;;;;;;;;;;24.20;83.00;;;;;;5115653;28;20408;-57
2022/08/27 12:59:04;;;;;;;;;;;24.20;83.00;;;;;;5115792;28;19907;-57
2022/08/27 13:01:40;;;;;;;;;;;24.20;83.00;;;;;;5115869;28;19908;-55
2022/08/27 13:04:09;;;;;;;;;;;24.20;83.10;;;;;;5114735;28;19965;-56
2022/08/27 13:06:35;;;;;;;;;;;24.20;83.00;;;;;;5115847;28;19918;-55
2022/08/27 13:09:05;;;;;;;;;;;24.20;83.10;;;;;;5115608;28;20277;-55
2022/08/27 13:11:32;;;;;;;;;;;24.20;83.00;;;;;;5115983;28;19908;-56
2022/08/27 13:14:09;;;;;;;;;;;24.20;83.00;;;;;;5115619;28;19995;-54
2022/08/27 13:16:35;;;;;;;;;;;24.20;83.00;;;;;;5097339;28;20358;-56
2022/08/27 13:19:01;;;;;;;;;;;24.20;83.10;;;;;;5115531;28;20346;-57
2022/08/27 13:21:28;;;;;;;;;;;24.20;83.10;;;;;;5115721;28;19908;-57
2022/08/27 13:23:56;;;;;;;;;;;24.20;83.10;;;;;;5115264;28;19946;-54
2022/08/27 13:26:23;;;;;;;;;;;24.20;83.00;;;;;;5115208;28;19912;-56
2022/08/27 13:28:49;;;;;;;;;;;24.20;83.10;;;;;;5115494;28;19919;-54
2022/08/27 13:31:15;;;;;;;;;;;24.20;83.10;;;;;;5115305;28;19952;-56
2022/08/27 13:33:41;;;;;;;;;;;24.20;83.00;;;;;;5115417;28;20002;-56
2022/08/27 13:36:08;;;;;;;;;;;24.20;83.00;;;;;;5115439;28;20063;-56
2022/08/27 13:38:35;;;;;;;;;;;24.20;83.10;;;;;;5115177;28;19915;-53
2022/08/27 13:41:06;;;;;;;;;;;24.20;83.00;;;;;;5096972;28;20382;-55
2022/08/27 13:43:39;;;;;;;;;;;24.20;83.10;;;;;;5114926;28;19908;-55
2022/08/27 13:46:07;;;;;;;;;;;24.20;83.10;;;;;;5114934;28;19918;-55
2022/08/27 13:48:34;;;;;;;;;;;24.30;83.10;;;;;;5114862;28;19912;-57
2022/08/27 13:51:00;;;;;;;;;;;24.30;83.10;;;;;;5115643;28;20058;-55
2022/08/27 13:56:28;;;;;;;;;;;24.30;83.10;;;;;;5115177;28;19968;-56
2022/08/27 13:58:54;;;;;;;;;;;24.30;83.10;;;;;;5114863;28;19915;-50
2022/08/27 14:01:24;;;;;;;;;;;24.30;83.10;;;;;;5114567;28;20254;-52
2022/08/27 14:03:56;;;;;;;;;;;24.20;83.00;;;;;;5114887;28;19915;-51
2022/08/27 14:06:42;;;;;;;;;;;24.30;83.10;;;;;;5114632;28;19923;-57
2022/08/27 14:09:15;;;;;;;;;;;24.20;83.10;;;;;;5113406;28;19915;-57
2022/08/27 14:11:41;;;;;;;;;;;24.20;83.10;;;;;;5114739;28;19955;-54
2022/08/27 14:14:07;;;;;;;;;;;24.30;83.10;;;;;;5114200;28;19908;-55
2022/08/27 14:16:33;;;;;;;;;;;24.30;83.00;;;;;;5114351;28;19930;-55
2022/08/27 14:19:05;;;;;;;;;;;24.20;83.00;;;;;;5114611;28;19950;-55
2022/08/27 14:21:31;;;;;;;;;;;24.30;83.10;;;;;;5114821;28;19915;-54
2022/08/27 14:23:57;;;;;;;;;;;24.20;83.00;;;;;;5114240;28;19908;-56
2022/08/27 14:26:23;;;;;;;;;;;24.30;83.10;;;;;;5114585;28;20358;-54
2022/08/27 14:28:48;;;;;;;;;;;24.30;83.00;;;;;;5114537;28;19907;-54
2022/08/27 14:31:14;;;;;;;;;;;24.20;83.00;;;;;;5114134;28;20335;-53
2022/08/27 14:33:40;;;;;;;;;;;24.20;83.00;;;;;;5114304;28;19995;-54